Estación Meteorológica Peña el Pijo (Robertgarden) [ 11/17/17 23:54:18 CET ]

Fecha Hora Presion(HPa) Temp (°C) Humedad % Rocio (°C) Viento ( m/s) Direccion Lluvia 1Hora(mm) Lluvia 24H(mm) LLuvia Total(mm)
2017-Aug-04 01:01:43 1014.100 18.8 41 5.2         1437.96
2017-Aug-04 02:01:36 1013.600 18.3 44 5.8         1437.96
2017-Aug-04 03:01:10 1013.000 17.6 49 6.7         1437.96
2017-Aug-04 04:01:12 1012.900 17.3 51 7.0         1437.96
2017-Aug-04 05:01:13 1012.800 16.7 55 7.6         1437.96
2017-Aug-04 06:01:11 1012.800 16.4 57 7.8         1437.96
2017-Aug-04 07:01:44 1013.000 15.7 59 7.7         1437.96
2017-Aug-04 08:01:53 1013.200 16.4 61 8.9         1437.96
2017-Aug-04 09:01:41 1013.100 22.9 50 11.9         1437.96
2017-Aug-04 10:01:49 1013.200 29.8 37 13.5         1437.96
2017-Aug-04 11:01:44 1013.100 35.1 30 15.0         1437.96
2017-Aug-04 12:01:59 1013.100 37.3 23 12.5         1437.96
2017-Aug-04 13:01:43 1013.000 38.6 20 11.7         1437.96
2017-Aug-04 14:01:36 1012.500 38.5 20 11.6         1437.96
2017-Aug-04 15:01:48 1012.100 39.9 19 11.7         1437.96
2017-Aug-04 16:01:54 1011.800 40.5 18 11.2         1437.96
2017-Aug-04 17:01:46 1011.400 38.5 20 11.6         1437.96
2017-Aug-04 18:01:47 1011.400 37.6 23 12.8         1437.96
2017-Aug-04 19:01:56 1011.300 35.9 25 12.6         1437.96
2017-Aug-04 20:01:47 1011.800 33.5 26 11.2         1437.96
2017-Aug-04 21:01:42 1012.100 30.6 28 9.9         1437.96
2017-Aug-04 22:01:56 1012.600 27.0 32 8.9         1437.96
2017-Aug-04 23:01:33 1013.300 23.8 40 9.0         1437.96

Temperatura Máxima:40°    Temperatura Mínima:15°
Presión Máxima:1014.100 Hpa    Presión Mínima:1011.300 Hpa


Volver